Terminal Aerodrome Forecast
Issued by NWS

Home | Current Version | Previous Version | Text Only | Print | Product List | Glossary On
Versions: 1 2 3 4 5 6 7 8 9 10 11 12 13 14 15 16 17 18
000
FTUS44 KSJT 291144
TAFSOA
TAF
KSOA 291144Z 2912/3012 VRB06KT P6SM VCSH BKN050
      TEMPO 2913/2915 5SM -SHRA BKN035
     FM291500 17012KT P6SM SCT050 BKN100
     FM291800 17012KT P6SM BKN050
     FM300800 16010KT P6SM BKN020
     FM301000 14008KT 5SM BR OVC012=

USA.gov is the U.S. government's official web portal to all federal, state and local government web resources and services.